Time;durP1;ratioP1;P1;durP2;ratioP2;P2;SDS_P1;SDS_P2;PMS_P1;PMS_P2;Temp;Humidity;BMP_temperature;BMP_pressure;BME280_temperature;BME280_humidity;BME280_pressure;Samples;Min_cycle;Max_cycle;Signal;HPM_P1;HPM_P2
2024/01/29 00:01:59;;;;;;;2.33;2.13;;;;;;;;;;5111566;28;20255;-76
2024/01/29 00:04:26;;;;;;;2.07;1.97;;;;;;;;;;5111227;28;20211;-77
2024/01/29 00:06:52;;;;;;;3.13;2.83;;;;;;;;;;5111736;28;20207;-76
2024/01/29 00:09:21;;;;;;;3.30;2.57;;;;;;;;;;5111136;28;20200;-76
2024/01/29 00:11:48;;;;;;;2.53;2.33;;;;;;;;;;5111389;28;20208;-76
2024/01/29 00:14:15;;;;;;;9.37;3.30;;;;;;;;;;5110954;28;20249;-76
2024/01/29 00:16:42;;;;;;;3.07;2.77;;;;;;;;;;5111470;28;20195;-76
2024/01/29 00:19:08;;;;;;;3.30;3.00;;;;;;;;;;5110845;28;20195;-76
2024/01/29 00:21:35;;;;;;;3.03;2.73;;;;;;;;;;5111444;28;20207;-76
2024/01/29 00:24:03;;;;;;;3.73;3.03;;;;;;;;;;5111330;28;20199;-76
2024/01/29 00:26:31;;;;;;;2.43;2.23;;;;;;;;;;5111029;28;20587;-76
2024/01/29 00:28:58;;;;;;;3.63;2.70;;;;;;;;;;5110606;28;20207;-76
2024/01/29 00:31:25;;;;;;;4.10;3.27;;;;;;;;;;5111079;28;20211;-76
2024/01/29 00:33:52;;;;;;;3.53;3.07;;;;;;;;;;5111307;28;20200;-76
2024/01/29 00:36:19;;;;;;;2.73;2.40;;;;;;;;;;5111120;28;20270;-76
2024/01/29 00:38:46;;;;;;;3.40;3.07;;;;;;;;;;5110492;28;20206;-76
2024/01/29 00:41:13;;;;;;;3.00;2.80;;;;;;;;;;5111308;28;20260;-76
2024/01/29 00:43:41;;;;;;;3.83;2.60;;;;;;;;;;5110706;28;20724;-76
2024/01/29 00:46:08;;;;;;;3.17;2.87;;;;;;;;;;5111431;28;20206;-76
2024/01/29 00:48:35;;;;;;;3.47;2.53;;;;;;;;;;5110617;28;20211;-76
2024/01/29 00:51:02;;;;;;;3.57;2.83;;;;;;;;;;5110906;28;20199;-76
2024/01/29 00:53:30;;;;;;;3.57;2.83;;;;;;;;;;5111575;28;20210;-76
2024/01/29 00:55:59;;;;;;;2.93;2.73;;;;;;;;;;5114970;28;20204;-76
2024/01/29 00:58:25;;;;;;;5.10;3.00;;;;;;;;;;5115451;28;20203;-76
2024/01/29 01:00:54;;;;;;;3.30;3.00;;;;;;;;;;5115340;28;20195;-76
2024/01/29 01:03:20;;;;;;;3.10;2.80;;;;;;;;;;5114843;28;20705;-76
2024/01/29 01:05:47;;;;;;;2.53;2.33;;;;;;;;;;5114467;28;20203;-76
2024/01/29 01:08:15;;;;;;;3.13;2.83;;;;;;;;;;5114624;28;20674;-76
2024/01/29 01:10:42;;;;;;;2.90;2.60;;;;;;;;;;5114479;28;20684;-76
2024/01/29 01:13:09;;;;;;;5.63;3.30;;;;;;;;;;5115033;28;20205;-76
2024/01/29 01:15:37;;;;;;;2.63;2.40;;;;;;;;;;5114718;28;20214;-76
2024/01/29 01:18:05;;;;;;;3.07;2.77;;;;;;;;;;5114557;28;20240;-76
2024/01/29 01:20:32;;;;;;;2.90;2.60;;;;;;;;;;5114645;28;20592;-76
2024/01/29 01:23:00;;;;;;;3.07;2.47;;;;;;;;;;5114845;28;20242;-76
2024/01/29 01:25:26;;;;;;;2.73;2.53;;;;;;;;;;5114333;28;20195;-76
2024/01/29 01:27:53;;;;;;;2.80;2.47;;;;;;;;;;5114827;28;20222;-75
2024/01/29 01:30:21;;;;;;;2.87;2.67;;;;;;;;;;5113937;28;20231;-76
2024/01/29 01:32:48;;;;;;;2.63;2.30;;;;;;;;;;5114638;28;20296;-76
2024/01/29 01:35:16;;;;;;;3.17;2.70;;;;;;;;;;5114181;28;20645;-76
2024/01/29 01:37:43;;;;;;;3.13;2.40;;;;;;;;;;5114014;28;20331;-77
2024/01/29 01:40:11;;;;;;;2.70;2.47;;;;;;;;;;5114041;28;20592;-76
2024/01/29 01:42:40;;;;;;;2.43;2.23;;;;;;;;;;5113962;28;20219;-76
2024/01/29 01:45:08;;;;;;;3.27;2.40;;;;;;;;;;5113987;28;20754;-77
2024/01/29 01:47:35;;;;;;;4.10;3.30;;;;;;;;;;5113910;28;20602;-77
2024/01/29 01:50:02;;;;;;;4.30;3.00;;;;;;;;;;5113427;28;20203;-77
2024/01/29 01:52:30;;;;;;;3.13;2.60;;;;;;;;;;5114743;28;20200;-76
2024/01/29 01:55:00;;;;;;;3.27;2.73;;;;;;;;;;5113800;28;20196;-77
2024/01/29 01:57:27;;;;;;;4.17;2.63;;;;;;;;;;5114065;28;20202;-77
2024/01/29 01:59:54;;;;;;;2.50;2.30;;;;;;;;;;5113577;28;20203;-77
2024/01/29 02:02:21;;;;;;;2.60;2.40;;;;;;;;;;5114116;28;20230;-77
2024/01/29 02:04:48;;;;;;;2.27;2.07;;;;;;;;;;5112958;28;20206;-77
2024/01/29 02:07:15;;;;;;;2.70;2.50;;;;;;;;;;5113575;28;20204;-77
2024/01/29 02:09:43;;;;;;;3.07;2.60;;;;;;;;;;5113343;28;20203;-77
2024/01/29 02:12:10;;;;;;;3.50;2.63;;;;;;;;;;5113766;28;20627;-77
2024/01/29 02:14:37;;;;;;;2.93;2.73;;;;;;;;;;5113627;28;20738;-77
2024/01/29 02:17:04;;;;;;;3.13;2.80;;;;;;;;;;5113537;28;20207;-77
2024/01/29 02:19:30;;;;;;;3.43;3.00;;;;;;;;;;5113992;28;20265;-77
2024/01/29 02:22:00;;;;;;;3.27;2.50;;;;;;;;;;5113779;28;20224;-77
2024/01/29 02:24:28;;;;;;;3.77;3.30;;;;;;;;;;5113110;28;20200;-77
2024/01/29 02:26:57;;;;;;;3.87;3.43;;;;;;;;;;5113635;28;20215;-77
2024/01/29 02:29:24;;;;;;;4.37;3.97;;;;;;;;;;5113299;28;20701;-77
2024/01/29 02:31:50;;;;;;;3.03;2.70;;;;;;;;;;5113423;28;20679;-77
2024/01/29 02:34:17;;;;;;;3.40;3.07;;;;;;;;;;5113165;28;20200;-77
2024/01/29 02:36:44;;;;;;;3.53;3.23;;;;;;;;;;5112858;28;20207;-77
2024/01/29 02:39:12;;;;;;;4.53;3.27;;;;;;;;;;5113082;28;20210;-77
2024/01/29 02:41:40;;;;;;;3.50;3.20;;;;;;;;;;5106427;28;20654;-77
2024/01/29 02:44:07;;;;;;;4.23;3.37;;;;;;;;;;5112849;28;20590;-77
2024/01/29 02:46:34;;;;;;;3.23;2.93;;;;;;;;;;5113138;28;20206;-76
2024/01/29 02:49:01;;;;;;;3.30;3.00;;;;;;;;;;5113103;28;20256;-77
2024/01/29 02:51:27;;;;;;;3.20;2.63;;;;;;;;;;5113529;28;20207;-77
2024/01/29 02:53:54;;;;;;;3.10;2.77;;;;;;;;;;5112259;28;20206;-77
2024/01/29 02:56:21;;;;;;;3.03;2.30;;;;;;;;;;5112828;28;20199;-77
2024/01/29 02:58:49;;;;;;;4.73;2.53;;;;;;;;;;5112568;28;20203;-77
2024/01/29 03:01:18;;;;;;;2.07;1.97;;;;;;;;;;5109180;28;20203;-77
2024/01/29 03:03:45;;;;;;;3.93;2.40;;;;;;;;;;5105490;28;20228;-77
2024/01/29 03:06:12;;;;;;;2.60;2.40;;;;;;;;;;5108957;28;20204;-77
2024/01/29 03:08:39;;;;;;;1.90;1.80;;;;;;;;;;5104671;28;20208;-77
2024/01/29 03:11:06;;;;;;;2.37;2.17;;;;;;;;;;5107450;28;20634;-77
2024/01/29 03:13:33;;;;;;;2.67;1.83;;;;;;;;;;5105311;28;20200;-77
2024/01/29 03:16:01;;;;;;;1.93;1.83;;;;;;;;;;5106648;28;20199;-77
2024/01/29 03:18:28;;;;;;;2.03;1.80;;;;;;;;;;5109650;28;20304;-77
2024/01/29 03:20:54;;;;;;;2.00;1.90;;;;;;;;;;5112087;28;20211;-77
2024/01/29 03:23:21;;;;;;;2.30;2.10;;;;;;;;;;5112599;28;20277;-77
2024/01/29 03:25:48;;;;;;;1.87;1.70;;;;;;;;;;5112005;28;20199;-77
2024/01/29 03:28:15;;;;;;;2.57;1.70;;;;;;;;;;5112223;28;20211;-76
2024/01/29 03:30:41;;;;;;;1.90;1.80;;;;;;;;;;5099228;28;20224;-73
2024/01/29 03:33:09;;;;;;;1.70;1.60;;;;;;;;;;5106572;28;20678;-74
2024/01/29 03:35:36;;;;;;;1.83;1.73;;;;;;;;;;5111362;28;20203;-78
2024/01/29 03:38:04;;;;;;;2.80;2.00;;;;;;;;;;5112009;28;20634;-75
2024/01/29 03:40:31;;;;;;;2.00;1.80;;;;;;;;;;5112098;28;20195;-76
2024/01/29 03:42:58;;;;;;;1.80;1.70;;;;;;;;;;5111480;28;20219;-76
2024/01/29 03:45:25;;;;;;;2.80;2.43;;;;;;;;;;5111547;28;20218;-76
2024/01/29 03:47:51;;;;;;;3.47;3.13;;;;;;;;;;5111494;28;20209;-76
2024/01/29 03:50:20;;;;;;;2.50;2.30;;;;;;;;;;5111434;28;20609;-76
2024/01/29 03:52:47;;;;;;;2.50;2.27;;;;;;;;;;5111821;28;20206;-76
2024/01/29 03:55:14;;;;;;;3.07;2.73;;;;;;;;;;5111400;28;20203;-75
2024/01/29 03:57:41;;;;;;;2.77;2.27;;;;;;;;;;5110951;28;20203;-76
2024/01/29 04:00:09;;;;;;;3.20;2.67;;;;;;;;;;5111936;28;20211;-76
2024/01/29 04:02:35;;;;;;;3.03;2.73;;;;;;;;;;5111089;28;20229;-78
2024/01/29 04:05:02;;;;;;;3.40;3.10;;;;;;;;;;5111333;28;20676;-76
2024/01/29 04:07:30;;;;;;;4.27;3.87;;;;;;;;;;5111338;28;20202;-76
2024/01/29 04:09:58;;;;;;;3.50;3.17;;;;;;;;;;5111221;28;20666;-76
2024/01/29 04:12:25;;;;;;;3.83;3.30;;;;;;;;;;5111933;28;20215;-76
2024/01/29 04:14:51;;;;;;;3.43;2.90;;;;;;;;;;5111283;28;20883;-76
2024/01/29 04:17:18;;;;;;;5.00;4.03;;;;;;;;;;5111269;28;20203;-76
2024/01/29 04:19:45;;;;;;;4.80;4.30;;;;;;;;;;5111109;28;20674;-76
2024/01/29 04:22:12;;;;;;;4.10;3.70;;;;;;;;;;5111238;28;20196;-76
2024/01/29 04:24:40;;;;;;;4.30;3.57;;;;;;;;;;5111204;28;20226;-76
2024/01/29 04:27:07;;;;;;;6.07;4.70;;;;;;;;;;5111129;28;20204;-76
2024/01/29 04:29:34;;;;;;;4.73;4.30;;;;;;;;;;5110516;28;20238;-76
2024/01/29 04:32:00;;;;;;;5.23;4.73;;;;;;;;;;5111103;28;20199;-76
2024/01/29 04:34:27;;;;;;;5.60;5.00;;;;;;;;;;5110810;28;20196;-75
2024/01/29 04:37:02;;;;;;;7.07;4.53;;;;;;;;;;5111103;28;20196;-76
2024/01/29 04:39:28;;;;;;;7.43;4.87;;;;;;;;;;5111099;28;20618;-76
2024/01/29 04:41:59;;;;;;;6.27;5.07;;;;;;;;;;5108778;28;20199;-76
2024/01/29 04:44:26;;;;;;;5.97;5.40;;;;;;;;;;5109914;28;20230;-76
2024/01/29 04:46:52;;;;;;;6.23;4.73;;;;;;;;;;5109773;28;20203;-76
2024/01/29 04:49:19;;;;;;;6.53;5.83;;;;;;;;;;5109945;28;20199;-75
2024/01/29 04:51:46;;;;;;;6.23;5.17;;;;;;;;;;5109978;28;20191;-76
2024/01/29 04:54:13;;;;;;;5.77;5.17;;;;;;;;;;5108805;28;20203;-76
2024/01/29 04:56:39;;;;;;;5.63;4.97;;;;;;;;;;5110013;28;20219;-78
2024/01/29 04:59:08;;;;;;;6.40;4.40;;;;;;;;;;5109897;28;20199;-76
2024/01/29 05:01:34;;;;;;;6.93;5.33;;;;;;;;;;5109470;28;20207;-77
2024/01/29 05:04:01;;;;;;;6.13;4.80;;;;;;;;;;5109690;28;20223;-76
2024/01/29 05:06:28;;;;;;;6.00;4.83;;;;;;;;;;5109167;28;20211;-76
2024/01/29 05:08:56;;;;;;;4.87;4.30;;;;;;;;;;5109271;28;20619;-76
2024/01/29 05:11:23;;;;;;;7.07;4.70;;;;;;;;;;5095584;28;20242;-75
2024/01/29 05:13:50;;;;;;;4.93;4.43;;;;;;;;;;5109642;28;20227;-76
2024/01/29 05:16:18;;;;;;;5.57;4.17;;;;;;;;;;5101156;28;20223;-76
2024/01/29 05:18:45;;;;;;;6.43;5.07;;;;;;;;;;5101221;28;20204;-76
2024/01/29 05:21:12;;;;;;;5.47;4.23;;;;;;;;;;5109177;28;20694;-76
2024/01/29 05:23:39;;;;;;;7.40;6.20;;;;;;;;;;5109225;28;20621;-76
2024/01/29 05:26:06;;;;;;;6.10;4.50;;;;;;;;;;5109854;28;20200;-77
2024/01/29 05:28:33;;;;;;;5.40;4.50;;;;;;;;;;5109305;28;20211;-76
2024/01/29 05:30:59;;;;;;;5.30;4.77;;;;;;;;;;5109621;28;20219;-76
2024/01/29 05:33:27;;;;;;;4.70;4.17;;;;;;;;;;5109627;28;20214;-76
2024/01/29 05:35:54;;;;;;;5.10;3.67;;;;;;;;;;5109182;28;20676;-76
2024/01/29 05:38:21;;;;;;;5.47;4.60;;;;;;;;;;5109054;28;20286;-76
2024/01/29 05:40:48;;;;;;;4.67;3.77;;;;;;;;;;5110807;28;20195;-76
2024/01/29 05:43:15;;;;;;;4.50;3.67;;;;;;;;;;5112981;28;20670;-76
2024/01/29 05:45:42;;;;;;;4.57;3.43;;;;;;;;;;5113332;28;20211;-78
2024/01/29 05:48:09;;;;;;;5.13;3.80;;;;;;;;;;5113703;28;20677;-76
2024/01/29 05:50:38;;;;;;;4.43;4.03;;;;;;;;;;5114197;28;20654;-76
2024/01/29 05:53:05;;;;;;;5.10;4.23;;;;;;;;;;5114446;28;20568;-76
2024/01/29 05:55:32;;;;;;;4.07;3.73;;;;;;;;;;5112634;28;20260;-76
2024/01/29 05:57:58;;;;;;;4.57;3.70;;;;;;;;;;5107591;28;20204;-76
2024/01/29 06:00:25;;;;;;;4.57;3.77;;;;;;;;;;5107577;28;20211;-76
2024/01/29 06:02:52;;;;;;;5.90;3.93;;;;;;;;;;5111484;28;20215;-76
2024/01/29 06:05:19;;;;;;;4.43;4.03;;;;;;;;;;5112176;28;20239;-76
2024/01/29 06:07:47;;;;;;;4.87;3.53;;;;;;;;;;5113026;28;20617;-76
2024/01/29 06:10:15;;;;;;;6.47;4.53;;;;;;;;;;5113139;28;20562;-76
2024/01/29 06:12:42;;;;;;;5.47;4.17;;;;;;;;;;5113880;28;20203;-76
2024/01/29 06:15:09;;;;;;;5.70;4.23;;;;;;;;;;5113282;28;20606;-76
2024/01/29 06:17:36;;;;;;;5.17;3.97;;;;;;;;;;5113342;28;20204;-75
2024/01/29 06:20:04;;;;;;;5.43;3.90;;;;;;;;;;5112414;28;20212;-76
2024/01/29 06:22:30;;;;;;;4.77;3.40;;;;;;;;;;5113293;28;20290;-76
2024/01/29 06:24:58;;;;;;;4.27;3.87;;;;;;;;;;5112738;28;20223;-76
2024/01/29 06:27:25;;;;;;;6.00;4.73;;;;;;;;;;5113168;28;20210;-76
2024/01/29 06:29:52;;;;;;;4.70;4.20;;;;;;;;;;5112743;28;20234;-76
2024/01/29 06:32:21;;;;;;;6.27;4.10;;;;;;;;;;5112803;28;20192;-76
2024/01/29 06:34:48;;;;;;;4.87;4.03;;;;;;;;;;5112912;28;20202;-75
2024/01/29 06:37:15;;;;;;;4.20;3.70;;;;;;;;;;5112840;28;20192;-75
2024/01/29 06:39:41;;;;;;;3.60;3.30;;;;;;;;;;5113121;28;20207;-76
2024/01/29 06:42:09;;;;;;;4.80;3.63;;;;;;;;;;5113173;28;20200;-76
2024/01/29 06:44:36;;;;;;;3.23;2.93;;;;;;;;;;5112897;28;20226;-76
2024/01/29 06:47:03;;;;;;;4.57;3.40;;;;;;;;;;5113366;28;20616;-76
2024/01/29 06:49:31;;;;;;;3.03;2.73;;;;;;;;;;5113231;28;20199;-76
2024/01/29 06:52:01;;;;;;;3.23;2.83;;;;;;;;;;5112396;28;20199;-76
2024/01/29 06:54:27;;;;;;;2.77;2.57;;;;;;;;;;5112380;28;20199;-77
2024/01/29 06:56:57;;;;;;;5.00;3.60;;;;;;;;;;5099591;28;20589;-76
2024/01/29 06:59:26;;;;;;;4.23;2.93;;;;;;;;;;5112920;28;20200;-77
2024/01/29 07:01:54;;;;;;;3.37;3.07;;;;;;;;;;5113237;28;20202;-76
2024/01/29 07:04:20;;;;;;;4.00;2.97;;;;;;;;;;5111968;28;20234;-77
2024/01/29 07:06:47;;;;;;;3.00;2.60;;;;;;;;;;5112925;28;20207;-77
2024/01/29 07:09:14;;;;;;;6.00;3.73;;;;;;;;;;5112381;28;20204;-76
2024/01/29 07:11:41;;;;;;;5.63;3.70;;;;;;;;;;5112675;28;20203;-76
2024/01/29 07:14:08;;;;;;;6.77;3.80;;;;;;;;;;5112372;28;20207;-76
2024/01/29 07:16:36;;;;;;;8.40;5.20;;;;;;;;;;5112226;28;20272;-76
2024/01/29 07:19:03;;;;;;;7.43;3.83;;;;;;;;;;5112610;28;20196;-76
2024/01/29 07:21:29;;;;;;;3.83;3.17;;;;;;;;;;5112314;28;20207;-76
2024/01/29 07:23:59;;;;;;;4.10;2.97;;;;;;;;;;5111741;28;20199;-76
2024/01/29 07:26:26;;;;;;;3.10;2.80;;;;;;;;;;5112676;28;20199;-76
2024/01/29 07:28:53;;;;;;;3.63;3.27;;;;;;;;;;5112052;28;20223;-76
2024/01/29 07:31:20;;;;;;;4.87;3.33;;;;;;;;;;5112390;28;20682;-76
2024/01/29 07:33:48;;;;;;;4.03;3.10;;;;;;;;;;5111783;28;20221;-75
2024/01/29 07:36:15;;;;;;;3.30;3.00;;;;;;;;;;5112319;28;20209;-75
2024/01/29 07:38:41;;;;;;;4.07;2.97;;;;;;;;;;5111989;28;20196;-75
2024/01/29 07:41:08;;;;;;;2.80;2.30;;;;;;;;;;5111960;28;20210;-75
2024/01/29 07:43:36;;;;;;;2.73;2.50;;;;;;;;;;5111994;28;20294;-75
2024/01/29 07:46:03;;;;;;;3.97;2.70;;;;;;;;;;5109492;28;20829;-75
2024/01/29 07:48:30;;;;;;;3.43;3.07;;;;;;;;;;5111369;28;20203;-75
2024/01/29 07:50:59;;;;;;;2.67;2.47;;;;;;;;;;5111834;28;20294;-75
2024/01/29 07:53:25;;;;;;;4.37;3.13;;;;;;;;;;5111321;28;20233;-75
2024/01/29 07:55:52;;;;;;;2.30;2.10;;;;;;;;;;5111690;28;20600;-74
2024/01/29 07:58:20;;;;;;;3.77;2.50;;;;;;;;;;5111534;28;20662;-74
2024/01/29 08:00:47;;;;;;;2.37;2.17;;;;;;;;;;5111442;28;20199;-74
2024/01/29 08:03:14;;;;;;;2.77;2.50;;;;;;;;;;5111134;28;20196;-74
2024/01/29 08:05:41;;;;;;;3.10;2.70;;;;;;;;;;5111512;28;20219;-74
2024/01/29 08:08:09;;;;;;;2.90;2.70;;;;;;;;;;5098450;28;20632;-75
2024/01/29 08:10:36;;;;;;;2.87;2.30;;;;;;;;;;5111430;28;20208;-75
2024/01/29 08:13:04;;;;;;;3.23;2.70;;;;;;;;;;5111654;28;20656;-75
2024/01/29 08:15:30;;;;;;;4.00;3.57;;;;;;;;;;5111350;28;20640;-74
2024/01/29 08:17:58;;;;;;;6.43;3.50;;;;;;;;;;5111882;28;20203;-74
2024/01/29 08:20:25;;;;;;;4.73;2.87;;;;;;;;;;5111068;28;20657;-75
2024/01/29 08:22:52;;;;;;;2.77;2.57;;;;;;;;;;5111593;28;20562;-75
2024/01/29 08:25:21;;;;;;;2.97;2.30;;;;;;;;;;5111349;28;20314;-74
2024/01/29 08:27:48;;;;;;;3.30;2.90;;;;;;;;;;5111361;28;20203;-74
2024/01/29 08:30:15;;;;;;;4.57;3.00;;;;;;;;;;5110759;28;20235;-74
2024/01/29 08:32:43;;;;;;;2.80;2.40;;;;;;;;;;5111338;28;20272;-74
2024/01/29 08:35:10;;;;;;;3.80;2.47;;;;;;;;;;5111137;28;20211;-74
2024/01/29 08:37:37;;;;;;;2.67;2.23;;;;;;;;;;5111239;28;20624;-74
2024/01/29 08:40:05;;;;;;;2.40;2.17;;;;;;;;;;5110425;28;20716;-75
2024/01/29 08:42:33;;;;;;;3.30;2.60;;;;;;;;;;5111064;28;20620;-74
2024/01/29 08:45:00;;;;;;;2.30;2.10;;;;;;;;;;5110823;28;20584;-74
2024/01/29 08:47:27;;;;;;;3.93;2.33;;;;;;;;;;5110832;28;20587;-75
2024/01/29 08:49:54;;;;;;;2.60;2.40;;;;;;;;;;5110592;28;20203;-75
2024/01/29 08:52:21;;;;;;;3.47;2.73;;;;;;;;;;5111256;28;20207;-75
2024/01/29 08:54:49;;;;;;;2.73;2.53;;;;;;;;;;5110482;28;20199;-75
2024/01/29 08:57:16;;;;;;;3.97;3.37;;;;;;;;;;5111495;28;20199;-75
2024/01/29 08:59:44;;;;;;;3.53;2.83;;;;;;;;;;5110777;28;20191;-75
2024/01/29 09:02:11;;;;;;;2.53;2.30;;;;;;;;;;5111224;28;20203;-75
2024/01/29 09:04:37;;;;;;;3.23;2.77;;;;;;;;;;5110675;28;20306;-74
2024/01/29 09:07:04;;;;;;;2.60;2.37;;;;;;;;;;5110971;28;20296;-74
2024/01/29 09:09:31;;;;;;;2.87;2.57;;;;;;;;;;5110850;28;20207;-74
2024/01/29 09:11:58;;;;;;;2.93;2.60;;;;;;;;;;5110431;28;20574;-74
2024/01/29 09:14:27;;;;;;;3.40;3.07;;;;;;;;;;5111591;28;20206;-75
2024/01/29 09:16:55;;;;;;;3.40;3.00;;;;;;;;;;5114813;28;20199;-75
2024/01/29 09:19:23;;;;;;;3.27;2.97;;;;;;;;;;5114552;28;20199;-75
2024/01/29 09:21:50;;;;;;;4.10;3.13;;;;;;;;;;5114586;28;20738;-74
2024/01/29 09:24:17;;;;;;;2.80;2.50;;;;;;;;;;5114302;28;20688;-75
2024/01/29 09:26:44;;;;;;;4.40;3.47;;;;;;;;;;5114687;28;20199;-74
2024/01/29 09:29:11;;;;;;;5.77;3.20;;;;;;;;;;5114114;28;20230;-74
2024/01/29 09:31:38;;;;;;;3.57;2.77;;;;;;;;;;5114673;28;20199;-74
2024/01/29 09:34:06;;;;;;;4.17;3.13;;;;;;;;;;5114363;28;20203;-75
2024/01/29 09:36:33;;;;;;;5.03;3.13;;;;;;;;;;5114530;28;20215;-76
2024/01/29 09:38:59;;;;;;;3.03;2.73;;;;;;;;;;5100922;28;20203;-75
2024/01/29 09:41:26;;;;;;;3.27;2.97;;;;;;;;;;5114475;28;20199;-75
2024/01/29 09:43:55;;;;;;;3.47;3.17;;;;;;;;;;5114378;28;20268;-76
2024/01/29 09:46:22;;;;;;;5.10;3.43;;;;;;;;;;5114306;28;20255;-75
2024/01/29 09:48:49;;;;;;;3.00;2.67;;;;;;;;;;5114865;28;20264;-75
2024/01/29 09:51:20;;;;;;;4.00;3.57;;;;;;;;;;5114276;28;20218;-75
2024/01/29 09:53:48;;;;;;;5.07;3.40;;;;;;;;;;5114141;28;20700;-74
2024/01/29 09:56:14;;;;;;;4.03;3.07;;;;;;;;;;5113947;28;20211;-74
2024/01/29 09:58:41;;;;;;;3.20;2.70;;;;;;;;;;5114220;28;20202;-74
2024/01/29 10:01:11;;;;;;;3.37;3.07;;;;;;;;;;5114123;28;20219;-74
2024/01/29 10:03:39;;;;;;;3.70;3.00;;;;;;;;;;5114152;28;20211;-75
2024/01/29 10:06:06;;;;;;;5.40;3.27;;;;;;;;;;5114140;28;20223;-74
2024/01/29 10:08:35;;;;;;;2.80;2.33;;;;;;;;;;5114058;28;20199;-75
2024/01/29 10:11:02;;;;;;;4.20;2.60;;;;;;;;;;5113887;28;20206;-75
2024/01/29 10:13:29;;;;;;;2.93;2.63;;;;;;;;;;5114151;28;20206;-75
2024/01/29 10:15:57;;;;;;;3.20;2.83;;;;;;;;;;5113019;28;20195;-75
2024/01/29 10:18:23;;;;;;;2.40;2.30;;;;;;;;;;5113908;28;20196;-75
2024/01/29 10:20:59;;;;;;;2.60;2.40;;;;;;;;;;5113532;28;20257;-74
2024/01/29 10:23:26;;;;;;;3.33;2.43;;;;;;;;;;5113794;28;20277;-75
2024/01/29 10:25:59;;;;;;;4.20;2.07;;;;;;;;;;5112481;28;20259;-74
2024/01/29 10:28:27;;;;;;;4.37;2.73;;;;;;;;;;5113414;28;20635;-75
2024/01/29 10:31:01;;;;;;;3.27;2.67;;;;;;;;;;5114154;28;20227;-74
2024/01/29 10:33:28;;;;;;;3.03;2.73;;;;;;;;;;5113493;28;20286;-75
2024/01/29 10:36:04;;;;;;;2.77;2.30;;;;;;;;;;5113190;28;20199;-75
2024/01/29 10:38:35;;;;;;;3.20;2.67;;;;;;;;;;5113531;28;20206;-75
2024/01/29 10:41:06;;;;;;;2.43;2.23;;;;;;;;;;5113314;28;20239;-74
2024/01/29 10:43:37;;;;;;;3.10;2.80;;;;;;;;;;5113244;28;20207;-75
2024/01/29 10:46:06;;;;;;;2.83;2.57;;;;;;;;;;5113518;28;20250;-75
2024/01/29 10:48:33;;;;;;;3.27;2.97;;;;;;;;;;5112328;28;20200;-75
2024/01/29 10:51:00;;;;;;;3.37;3.07;;;;;;;;;;5113355;28;20284;-74
2024/01/29 10:53:27;;;;;;;3.70;2.30;;;;;;;;;;5112929;28;20206;-75
2024/01/29 10:55:57;;;;;;;2.93;2.63;;;;;;;;;;5112690;28;20200;-75
2024/01/29 10:58:25;;;;;;;3.77;3.13;;;;;;;;;;5099457;28;20196;-75
2024/01/29 11:00:52;;;;;;;3.23;2.87;;;;;;;;;;5113287;28;20696;-75
2024/01/29 11:03:21;;;;;;;4.17;3.47;;;;;;;;;;5112710;28;20207;-75
2024/01/29 11:05:52;;;;;;;4.20;3.80;;;;;;;;;;5112144;28;20313;-75
2024/01/29 11:08:24;;;;;;;3.47;3.17;;;;;;;;;;5113082;28;20199;-75
2024/01/29 11:10:51;;;;;;;3.80;3.20;;;;;;;;;;5112745;28;20277;-74
2024/01/29 11:13:19;;;;;;;5.37;4.20;;;;;;;;;;5113065;28;20202;-75
2024/01/29 11:15:47;;;;;;;5.60;3.83;;;;;;;;;;5112260;28;20200;-75
2024/01/29 11:18:14;;;;;;;3.90;3.37;;;;;;;;;;5112774;28;20208;-75
2024/01/29 11:20:42;;;;;;;3.57;3.27;;;;;;;;;;5112223;28;20199;-75
2024/01/29 11:23:11;;;;;;;4.43;3.27;;;;;;;;;;5112178;28;20253;-75
2024/01/29 11:25:38;;;;;;;4.37;3.73;;;;;;;;;;5111612;28;20709;-75
2024/01/29 11:28:08;;;;;;;3.60;3.10;;;;;;;;;;5112742;28;20704;-75
2024/01/29 11:30:35;;;;;;;4.03;3.63;;;;;;;;;;5112381;28;20231;-75
2024/01/29 11:33:14;;;;;;;4.23;3.40;;;;;;;;;;5112575;28;20203;-75
2024/01/29 11:35:41;;;;;;;3.97;3.43;;;;;;;;;;5111971;28;20203;-75
2024/01/29 11:38:09;;;;;;;4.93;3.77;;;;;;;;;;5112216;28;20627;-75
2024/01/29 11:40:38;;;;;;;3.53;3.23;;;;;;;;;;5111930;28;20674;-75
2024/01/29 11:43:11;;;;;;;5.43;3.93;;;;;;;;;;5111950;28;20230;-75
2024/01/29 11:45:38;;;;;;;4.40;3.53;;;;;;;;;;5112145;28;20219;-75
2024/01/29 11:48:09;;;;;;;4.30;3.90;;;;;;;;;;5112002;28;20206;-75
2024/01/29 11:50:38;;;;;;;4.73;3.70;;;;;;;;;;5111650;28;20669;-75
2024/01/29 11:53:05;;;;;;;4.00;3.50;;;;;;;;;;5111467;28;20635;-75
2024/01/29 11:55:32;;;;;;;5.83;3.40;;;;;;;;;;5111821;28;20593;-75
2024/01/29 11:57:59;;;;;;;4.43;3.67;;;;;;;;;;5111590;28;20206;-77
2024/01/29 12:00:26;;;;;;;3.63;3.33;;;;;;;;;;5111654;28;20199;-75
2024/01/29 12:02:53;;;;;;;5.43;3.60;;;;;;;;;;5110996;28;20216;-74
2024/01/29 12:05:20;;;;;;;4.10;3.27;;;;;;;;;;5111611;28;20215;-75
2024/01/29 12:07:49;;;;;;;5.80;4.07;;;;;;;;;;5111780;28;20192;-75
2024/01/29 12:10:17;;;;;;;3.63;3.33;;;;;;;;;;5111707;28;20211;-75
2024/01/29 12:12:43;;;;;;;4.30;3.90;;;;;;;;;;5111526;28;20204;-75
2024/01/29 12:15:11;;;;;;;4.30;3.90;;;;;;;;;;5111259;28;20203;-75
2024/01/29 12:17:40;;;;;;;4.50;4.00;;;;;;;;;;5111075;28;20203;-75
2024/01/29 12:20:10;;;;;;;6.50;4.83;;;;;;;;;;5111560;28;20200;-75
2024/01/29 12:22:37;;;;;;;4.90;4.10;;;;;;;;;;5111048;28;20272;-75
2024/01/29 12:25:07;;;;;;;15.13;9.90;;;;;;;;;;5111054;28;20215;-75
2024/01/29 12:27:34;;;;;;;12.97;9.37;;;;;;;;;;5111295;28;20227;-75
2024/01/29 12:30:04;;;;;;;7.17;4.77;;;;;;;;;;5111463;28;20654;-76
2024/01/29 12:32:33;;;;;;;6.87;5.93;;;;;;;;;;5111232;28;20252;-76
2024/01/29 12:35:00;;;;;;;6.27;4.80;;;;;;;;;;5111346;28;20207;-75
2024/01/29 12:37:27;;;;;;;5.10;4.13;;;;;;;;;;5111702;28;20201;-75
2024/01/29 12:39:55;;;;;;;4.27;3.87;;;;;;;;;;5110763;28;20597;-75
2024/01/29 12:42:25;;;;;;;6.63;4.27;;;;;;;;;;5111353;28;20199;-75
2024/01/29 12:44:52;;;;;;;5.63;4.60;;;;;;;;;;5110724;28;20217;-75
2024/01/29 12:47:20;;;;;;;4.57;4.10;;;;;;;;;;5111342;28;20601;-75
2024/01/29 12:49:48;;;;;;;9.93;4.80;;;;;;;;;;5110197;28;20238;-75
2024/01/29 12:52:15;;;;;;;9.57;4.47;;;;;;;;;;5111565;28;20282;-75
2024/01/29 12:54:44;;;;;;;4.87;3.80;;;;;;;;;;5110988;28;20205;-74
2024/01/29 12:57:11;;;;;;;8.73;5.13;;;;;;;;;;5110974;28;20203;-75
2024/01/29 12:59:39;;;;;;;6.33;4.73;;;;;;;;;;5110941;28;20192;-75
2024/01/29 13:02:08;;;;;;;5.93;4.57;;;;;;;;;;5110673;28;20204;-75
2024/01/29 13:04:35;;;;;;;4.77;4.27;;;;;;;;;;5110238;28;20669;-75
2024/01/29 13:07:02;;;;;;;10.37;7.67;;;;;;;;;;5110860;28;20215;-77
2024/01/29 13:09:28;;;;;;;6.03;4.97;;;;;;;;;;5110701;28;20200;-75
2024/01/29 13:11:55;;;;;;;7.57;5.10;;;;;;;;;;5111111;28;20211;-75
2024/01/29 13:14:22;;;;;;;6.17;3.97;;;;;;;;;;5110124;28;20253;-75
2024/01/29 13:16:50;;;;;;;10.33;4.90;;;;;;;;;;5110744;28;20207;-75
2024/01/29 13:19:17;;;;;;;4.77;3.63;;;;;;;;;;5110624;28;20192;-75
2024/01/29 13:21:44;;;;;;;5.10;3.50;;;;;;;;;;5110750;28;20203;-75
2024/01/29 13:24:11;;;;;;;4.43;4.00;;;;;;;;;;5110098;28;20191;-75
2024/01/29 13:26:40;;;;;;;7.70;5.93;;;;;;;;;;5111109;28;20234;-75
2024/01/29 13:29:09;;;;;;;4.33;3.93;;;;;;;;;;5110353;28;20231;-75
2024/01/29 13:31:36;;;;;;;3.83;3.53;;;;;;;;;;5110871;28;20199;-75
2024/01/29 13:34:04;;;;;;;6.60;4.10;;;;;;;;;;5110208;28;20199;-76
2024/01/29 13:36:30;;;;;;;5.37;4.23;;;;;;;;;;5111092;28;20203;-76
2024/01/29 13:39:00;;;;;;;4.13;3.80;;;;;;;;;;5097513;28;20207;-75
2024/01/29 13:41:27;;;;;;;7.43;4.63;;;;;;;;;;5110247;28;20203;-75
2024/01/29 13:43:54;;;;;;;10.43;7.27;;;;;;;;;;5110481;28;20207;-75
2024/01/29 13:46:20;;;;;;;6.43;4.67;;;;;;;;;;5110764;28;20280;-75
2024/01/29 13:48:47;;;;;;;5.87;4.10;;;;;;;;;;5110691;28;20211;-75
2024/01/29 13:51:20;;;;;;;5.37;4.77;;;;;;;;;;5110069;28;20203;-75
2024/01/29 13:53:50;;;;;;;5.63;3.83;;;;;;;;;;5110884;28;20207;-75
2024/01/29 13:56:19;;;;;;;5.17;3.93;;;;;;;;;;5110555;28;20290;-75
2024/01/29 13:58:46;;;;;;;3.63;3.30;;;;;;;;;;5110242;28;20230;-75
2024/01/29 14:01:13;;;;;;;5.23;4.30;;;;;;;;;;5110741;28;20191;-75
2024/01/29 14:03:40;;;;;;;6.60;3.97;;;;;;;;;;5114299;28;20311;-75
2024/01/29 14:06:08;;;;;;;4.03;3.67;;;;;;;;;;5113875;28;20227;-75
2024/01/29 14:08:38;;;;;;;5.73;4.27;;;;;;;;;;5114128;28;20225;-76
2024/01/29 14:11:05;;;;;;;5.37;4.53;;;;;;;;;;5113623;28;20204;-75
2024/01/29 14:13:33;;;;;;;5.20;4.33;;;;;;;;;;5114269;28;20203;-75
2024/01/29 14:16:01;;;;;;;4.77;4.13;;;;;;;;;;5114272;28;20200;-75
2024/01/29 14:18:28;;;;;;;4.93;4.17;;;;;;;;;;5113768;28;20238;-75
2024/01/29 14:20:57;;;;;;;3.87;3.40;;;;;;;;;;5113593;28;20195;-75
2024/01/29 14:23:24;;;;;;;5.53;4.33;;;;;;;;;;5113435;28;20282;-75
2024/01/29 14:25:52;;;;;;;6.00;3.93;;;;;;;;;;5113324;28;20200;-75
2024/01/29 14:28:19;;;;;;;4.73;4.03;;;;;;;;;;5113365;28;20666;-75
2024/01/29 14:30:46;;;;;;;6.77;4.17;;;;;;;;;;5112851;28;20224;-75
2024/01/29 14:33:12;;;;;;;6.93;6.07;;;;;;;;;;5113338;28;20253;-75
2024/01/29 14:35:41;;;;;;;5.47;4.10;;;;;;;;;;5113003;28;20207;-75
2024/01/29 14:38:08;;;;;;;4.77;3.97;;;;;;;;;;5113185;28;20206;-76
2024/01/29 14:40:35;;;;;;;4.57;4.07;;;;;;;;;;5099866;28;20204;-76
2024/01/29 14:43:04;;;;;;;4.77;3.60;;;;;;;;;;5113405;28;20199;-76
2024/01/29 14:45:31;;;;;;;8.47;3.33;;;;;;;;;;5113335;28;20196;-75